Pagina principale
METAR-TAF:

METAR-TAF

Aeroporti :

Lanseria, Sudafrica

latitudine: 25-56S, longitudine: 027-56E, altezza: 1377 m

Osservazione

Il bollettino è stato emesso 48 minuti fa, alle 09:00 UTC
Vento 3 kt da nord/nord-ovest, variando fra ovest e est/nord-est
Temperature 16°C
Umidità 51%
Pressione 1031 hPa
Visibilità 10 km o più
nessuna nube inferiore a 1500 m e nessun cumulonembo

METAR: FALA 070900Z 34003KT 270V070 CAVOK 16/06 Q1031 NOSIG

Ora: 11:48 (09:48 UTC)

Previsione

Il bollettino è stato emesso 5 ore e 48 minuti fa, alle 04:00 UTC
Previsione valida dal 07 alle 06 UTC al 08 alle 06 UTC
Vento 3 kt da direzioni variabili
Visibilità 10 km o più
nessuna nube inferiore a 1500 m e nessun cumulonembo

TAF: FALA 070400Z 0706/0806 VRB03KT CAVOK TX20/0712Z TN04/0805Z

Osservazioni e previsioni meteorologiche di più di 4000 aeroporti (messaggi METAR e TAF).

Le stazioni disponibili sono rappresentate dai dischi gialli e rossi sulla carta.

Puntare il mouse per vedere il nome della stazione.

Clicca sopra per visualizzare le osservazioni e previsioni meteorologiche.

Per cambiare la mappa : fare clic sui pulsanti verdi con una croce nera per ingrandire, il pulsante verde con un trattino per diminuire, o sulla freccia verde per le mappe adiacenti.


METAR-TAF: